createdAt,value
2022-09-15T00:02:11.323Z,24.60
2022-09-15T00:04:41.876Z,24.64
2022-09-15T00:07:12.397Z,24.64
2022-09-15T00:09:42.921Z,24.66
2022-09-15T00:12:13.390Z,24.69
2022-09-15T00:14:44.095Z,24.69
2022-09-15T00:17:14.461Z,24.69
2022-09-15T00:19:45.101Z,24.71
2022-09-15T00:22:17.102Z,24.72
2022-09-15T00:24:49.557Z,24.73
2022-09-15T00:27:20.010Z,24.75
2022-09-15T00:29:50.426Z,24.71
2022-09-15T00:32:23.219Z,24.65
2022-09-15T00:34:53.834Z,24.63
2022-09-15T00:37:24.577Z,24.60
2022-09-15T00:39:55.813Z,24.56
2022-09-15T00:42:26.243Z,24.55
2022-09-15T00:44:58.896Z,24.55
2022-09-15T00:47:31.086Z,24.53
2022-09-15T00:50:04.043Z,24.53
2022-09-15T00:52:36.857Z,24.47
2022-09-15T00:55:09.845Z,24.41
2022-09-15T00:57:38.625Z,24.40
2022-09-15T01:00:11.762Z,24.37
2022-09-15T01:02:40.564Z,24.41
2022-09-15T01:05:13.039Z,24.38
2022-09-15T01:07:44.630Z,24.40
2022-09-15T01:10:17.228Z,24.41
2022-09-15T01:12:48.407Z,24.35
2022-09-15T01:15:19.991Z,24.32
2022-09-15T01:17:55.911Z,24.38
2022-09-15T01:20:43.399Z,24.44
2022-09-15T01:23:31.807Z,24.46
2022-09-15T01:26:17.278Z,24.50
2022-09-15T01:28:59.262Z,24.50
2022-09-15T01:31:31.169Z,24.46
2022-09-15T01:34:03.946Z,24.47
2022-09-15T01:36:34.272Z,24.51
2022-09-15T01:39:06.642Z,24.48
2022-09-15T01:41:39.260Z,24.41
2022-09-15T01:44:11.285Z,24.35
2022-09-15T01:46:47.384Z,24.36
2022-09-15T01:49:19.316Z,24.41
2022-09-15T01:51:50.561Z,24.47
2022-09-15T01:54:22.663Z,24.48
2022-09-15T01:56:53.298Z,24.51
2022-09-15T01:59:24.031Z,24.45
2022-09-15T02:01:59.245Z,24.34
2022-09-15T02:04:32.307Z,24.27
2022-09-15T02:07:01.604Z,24.13
2022-09-15T02:09:34.895Z,24.01
2022-09-15T02:12:09.263Z,24.02
2022-09-15T02:14:44.049Z,23.93
2022-09-15T02:17:16.419Z,23.69
2022-09-15T02:19:51.785Z,23.67
2022-09-15T02:22:27.302Z,23.61
2022-09-15T02:25:03.228Z,23.67
2022-09-15T02:27:35.409Z,23.68
2022-09-15T02:30:07.214Z,23.72
2022-09-15T02:32:38.862Z,23.79
2022-09-15T02:35:11.007Z,23.87
2022-09-15T02:37:41.676Z,23.91
2022-09-15T02:40:12.611Z,23.96
2022-09-15T02:42:52.812Z,24.02
2022-09-15T02:45:24.843Z,24.02
2022-09-15T02:47:56.340Z,23.86
2022-09-15T02:50:27.657Z,23.71
2022-09-15T02:52:58.698Z,23.70
2022-09-15T02:55:29.428Z,23.67
2022-09-15T02:58:00.820Z,23.62
2022-09-15T03:00:31.768Z,23.59
2022-09-15T03:03:02.287Z,23.61
2022-09-15T03:05:32.919Z,23.64
2022-09-15T03:08:04.186Z,23.74
2022-09-15T03:10:34.668Z,23.81
2022-09-15T03:13:05.005Z,23.71
2022-09-15T03:15:35.636Z,23.66
2022-09-15T03:18:06.471Z,23.67
2022-09-15T03:20:37.722Z,23.92
2022-09-15T03:23:08.454Z,23.85
2022-09-15T03:25:39.113Z,23.66
2022-09-15T03:28:09.402Z,23.56
2022-09-15T03:30:40.135Z,23.43
2022-09-15T03:33:10.466Z,23.27
2022-09-15T03:35:41.086Z,23.23
2022-09-15T03:38:11.722Z,23.29
2022-09-15T03:40:43.480Z,23.20
2022-09-15T03:43:18.555Z,23.15
2022-09-15T03:45:49.400Z,23.23
2022-09-15T03:48:20.596Z,23.28
2022-09-15T03:50:53.238Z,23.15
2022-09-15T03:53:23.805Z,23.19
2022-09-15T03:55:54.630Z,23.24
2022-09-15T03:58:28.897Z,23.31
2022-09-15T04:01:01.197Z,23.43
2022-09-15T04:03:31.950Z,23.51
2022-09-15T04:06:03.813Z,23.55
2022-09-15T04:08:34.444Z,23.43
2022-09-15T04:11:07.103Z,23.44
2022-09-15T04:13:37.651Z,23.49
2022-09-15T04:16:09.821Z,23.25
2022-09-15T04:18:40.664Z,23.17
2022-09-15T04:21:13.998Z,23.29
2022-09-15T04:23:44.714Z,23.51
2022-09-15T04:26:18.941Z,23.28
2022-09-15T04:28:49.466Z,23.19
2022-09-15T04:31:20.638Z,23.10
2022-09-15T04:33:53.148Z,23.11
2022-09-15T04:36:25.150Z,23.09
2022-09-15T04:38:56.707Z,23.04
2022-09-15T04:41:27.758Z,22.93
2022-09-15T04:43:58.949Z,22.97
2022-09-15T04:46:30.040Z,23.05
2022-09-15T04:49:00.612Z,23.26
2022-09-15T04:51:31.344Z,23.35
2022-09-15T04:54:01.673Z,23.39
2022-09-15T04:56:32.544Z,23.31
2022-09-15T04:59:04.277Z,23.47
2022-09-15T05:01:36.372Z,23.56
2022-09-15T05:04:06.751Z,23.51
2022-09-15T05:06:37.996Z,23.41
2022-09-15T05:09:10.606Z,23.29
2022-09-15T05:11:41.571Z,23.12
2022-09-15T05:14:12.825Z,23.18
2022-09-15T05:16:43.673Z,23.11
2022-09-15T05:19:14.116Z,23.19
2022-09-15T05:21:44.890Z,22.90
2022-09-15T05:24:15.790Z,22.88
2022-09-15T05:26:46.726Z,23.00
2022-09-15T05:29:17.354Z,23.14
2022-09-15T05:31:47.954Z,23.45
2022-09-15T05:34:18.624Z,23.50
2022-09-15T05:36:49.150Z,23.54
2022-09-15T05:39:21.272Z,23.37
2022-09-15T05:41:51.649Z,23.37
2022-09-15T05:44:22.343Z,23.50
2022-09-15T05:46:53.767Z,23.50
2022-09-15T05:49:24.355Z,23.46
2022-09-15T05:51:54.876Z,23.46
2022-09-15T05:54:25.113Z,23.71
2022-09-15T05:56:55.935Z,23.53
2022-09-15T05:59:26.166Z,23.24
2022-09-15T06:01:57.055Z,23.27
2022-09-15T06:04:27.422Z,23.00
2022-09-15T06:06:58.268Z,22.86
2022-09-15T06:09:28.980Z,22.95
2022-09-15T06:11:59.818Z,22.94
2022-09-15T06:14:30.158Z,23.24
2022-09-15T06:17:00.774Z,23.41
2022-09-15T06:19:31.103Z,23.46
2022-09-15T06:22:01.932Z,23.49
2022-09-15T06:24:32.459Z,23.53
2022-09-15T06:27:03.012Z,23.64
2022-09-15T06:29:33.638Z,23.77
2022-09-15T06:32:05.890Z,23.84
2022-09-15T06:34:36.520Z,23.97
2022-09-15T06:37:08.170Z,23.84
2022-09-15T06:39:39.053Z,23.82
2022-09-15T06:42:13.692Z,23.92
2022-09-15T06:44:44.949Z,23.75
2022-09-15T06:47:17.098Z,23.86
2022-09-15T06:49:47.376Z,24.16
2022-09-15T06:52:18.205Z,24.30
2022-09-15T06:54:49.394Z,24.25
2022-09-15T06:57:20.228Z,24.40
2022-09-15T06:59:50.451Z,24.43
2022-09-15T07:02:21.284Z,24.35
2022-09-15T07:04:51.942Z,24.34
2022-09-15T07:07:22.501Z,24.48
2022-09-15T07:09:53.034Z,24.86
2022-09-15T07:12:24.086Z,25.21
2022-09-15T07:14:54.806Z,23.82
2022-09-15T07:17:26.670Z,23.92
2022-09-15T07:19:57.649Z,24.45
2022-09-15T07:22:28.236Z,24.55
2022-09-15T07:24:58.666Z,24.41
2022-09-15T07:27:31.951Z,24.74
2022-09-15T07:30:02.686Z,25.13
2022-09-15T07:32:33.014Z,24.96
2022-09-15T07:35:03.805Z,24.72
2022-09-15T07:37:34.533Z,24.63
2022-09-15T07:40:05.880Z,24.72
2022-09-15T07:42:36.386Z,24.29
2022-09-15T07:45:08.159Z,24.04
2022-09-15T07:47:38.740Z,23.65
2022-09-15T07:50:09.537Z,23.99
2022-09-15T07:52:39.962Z,23.90
2022-09-15T07:55:10.885Z,23.45
2022-09-15T07:57:41.537Z,23.41
2022-09-15T08:00:12.793Z,23.16
2022-09-15T08:02:43.444Z,22.70
2022-09-15T08:05:13.868Z,22.55
2022-09-15T08:07:44.505Z,22.55
2022-09-15T08:10:15.080Z,22.38
2022-09-15T08:12:45.661Z,22.31
2022-09-15T08:15:16.286Z,22.06
2022-09-15T08:17:47.915Z,22.01
2022-09-15T08:20:18.472Z,21.89
2022-09-15T08:22:48.843Z,21.84
2022-09-15T08:25:19.802Z,21.82
2022-09-15T08:27:51.370Z,21.74
2022-09-15T08:30:22.730Z,21.88
2022-09-15T08:32:53.371Z,22.01
2022-09-15T08:35:23.999Z,22.18
2022-09-15T08:37:56.160Z,22.39
2022-09-15T08:40:27.975Z,22.52
2022-09-15T08:43:00.700Z,22.51
2022-09-15T08:45:34.611Z,22.72
2022-09-15T08:48:08.624Z,22.76
2022-09-15T08:50:39.103Z,22.75
2022-09-15T08:53:13.403Z,22.78
2022-09-15T08:55:49.611Z,23.27
2022-09-15T08:58:20.970Z,23.39
2022-09-15T09:00:53.340Z,23.28
2022-09-15T09:03:43.330Z,23.22
2022-09-15T09:06:17.594Z,23.17
2022-09-15T09:09:01.614Z,23.32
2022-09-15T09:11:40.056Z,23.41
2022-09-15T09:14:14.469Z,23.27
2022-09-15T09:16:50.280Z,23.28
2022-09-15T09:19:32.493Z,23.24
2022-09-15T09:22:04.371Z,23.42
2022-09-15T09:24:38.037Z,23.33
2022-09-15T09:27:11.904Z,23.32
2022-09-15T09:29:44.971Z,23.83
2022-09-15T09:32:13.817Z,23.58
2022-09-15T09:34:47.238Z,23.56
2022-09-15T09:37:18.476Z,23.90
2022-09-15T09:39:49.129Z,23.45
2022-09-15T09:42:20.257Z,23.25
2022-09-15T09:44:51.307Z,24.08
2022-09-15T09:47:22.522Z,23.85
2022-09-15T09:49:52.951Z,22.46
2022-09-15T09:52:35.279Z,22.67
2022-09-15T09:55:24.267Z,23.72
2022-09-15T09:57:55.047Z,23.94
2022-09-15T10:00:36.219Z,23.82
2022-09-15T10:03:12.894Z,23.92
2022-09-15T10:05:44.136Z,23.85
2022-09-15T10:08:19.562Z,23.54
2022-09-15T10:10:54.618Z,23.49
2022-09-15T10:13:25.130Z,23.69
2022-09-15T10:15:56.453Z,24.24
2022-09-15T10:18:30.200Z,23.36
2022-09-15T10:21:01.713Z,22.36
2022-09-15T10:23:33.503Z,22.96
2022-09-15T10:26:17.550Z,23.19
2022-09-15T10:39:07.633Z,23.15
2022-09-15T10:41:41.202Z,23.01
2022-09-15T10:44:27.434Z,23.03
2022-09-15T10:47:03.473Z,23.33
2022-09-15T10:49:40.308Z,23.24
2022-09-15T10:52:13.900Z,23.42
2022-09-15T10:54:57.480Z,24.38
2022-09-15T10:57:40.290Z,23.39
2022-09-15T11:00:13.237Z,23.46
2022-09-15T11:02:42.052Z,23.35
2022-09-15T11:05:33.456Z,23.39
2022-09-15T11:08:14.653Z,24.21
2022-09-15T11:10:47.126Z,23.91
2022-09-15T11:13:20.593Z,23.89
2022-09-15T11:15:56.934Z,22.82
2022-09-15T11:18:37.343Z,23.26
2022-09-15T11:21:12.991Z,23.37
2022-09-15T11:23:46.287Z,23.80
2022-09-15T11:26:21.216Z,23.83
2022-09-15T11:28:54.782Z,24.25
2022-09-15T11:31:23.745Z,23.92
2022-09-15T11:33:59.874Z,22.71
2022-09-15T11:36:32.763Z,22.69
2022-09-15T11:39:07.944Z,23.17
2022-09-15T11:41:41.705Z,24.37
2022-09-15T11:44:19.487Z,23.52
2022-09-15T11:46:57.839Z,22.85
2022-09-15T11:49:29.923Z,23.73
2022-09-15T11:52:04.649Z,23.95
2022-09-15T11:54:38.716Z,24.25
2022-09-15T11:57:16.742Z,23.29
2022-09-15T11:59:51.555Z,22.78
2022-09-15T12:02:25.536Z,23.21
2022-09-15T12:05:03.757Z,23.92
2022-09-15T12:07:37.459Z,24.12
2022-09-15T12:10:14.751Z,23.16
2022-09-15T12:12:46.715Z,23.65
2022-09-15T12:15:18.738Z,23.35
2022-09-15T12:17:53.651Z,23.75
2022-09-15T12:20:26.485Z,24.35
2022-09-15T12:22:55.887Z,24.07
2022-09-15T12:25:28.363Z,22.96
2022-09-15T12:28:16.209Z,22.99
2022-09-15T12:30:47.442Z,24.02
2022-09-15T12:33:34.558Z,24.29
2022-09-15T12:36:19.009Z,23.94
2022-09-15T12:38:50.763Z,23.84
2022-09-15T12:41:21.713Z,24.32
2022-09-15T12:43:54.866Z,24.56
2022-09-15T12:46:23.719Z,24.33
2022-09-15T12:48:58.152Z,23.02
2022-09-15T12:51:29.350Z,23.29
2022-09-15T12:54:03.207Z,23.92
2022-09-15T12:56:34.632Z,24.14
2022-09-15T12:59:07.160Z,24.41
2022-09-15T13:01:49.783Z,24.78
2022-09-15T13:04:28.725Z,24.48
2022-09-15T13:07:16.455Z,23.16
2022-09-15T13:09:57.325Z,23.35
2022-09-15T13:12:30.720Z,23.74
2022-09-15T13:15:03.708Z,24.02
2022-09-15T13:17:34.913Z,24.29
2022-09-15T13:20:13.530Z,24.23
2022-09-15T13:22:48.421Z,24.34
2022-09-15T13:25:22.770Z,24.52
2022-09-15T13:27:55.902Z,23.13
2022-09-15T13:30:32.421Z,22.85
2022-09-15T13:33:06.398Z,23.61
2022-09-15T13:35:54.192Z,24.18
2022-09-15T13:38:46.926Z,24.31
2022-09-15T13:41:44.508Z,24.73
2022-09-15T13:44:31.460Z,23.81
2022-09-15T13:47:10.062Z,23.13
2022-09-15T13:49:48.278Z,23.79
2022-09-15T13:52:33.744Z,24.42
2022-09-15T13:55:11.484Z,24.17
2022-09-15T14:00:35.461Z,24.28
2022-09-15T14:03:10.725Z,24.66
2022-09-15T14:05:41.301Z,23.59
2022-09-15T14:08:15.324Z,23.13
2022-09-15T14:10:48.255Z,23.62
2022-09-15T14:13:22.981Z,23.92
2022-09-15T14:15:59.286Z,24.03
2022-09-15T14:18:30.349Z,24.21
2022-09-15T14:21:02.163Z,24.25
2022-09-15T14:23:33.341Z,24.36
2022-09-15T14:26:04.241Z,24.72
2022-09-15T14:28:35.522Z,24.19
2022-09-15T14:31:05.735Z,23.02
2022-09-15T14:33:38.472Z,23.02
2022-09-15T14:36:15.959Z,23.47
2022-09-15T14:39:03.190Z,23.91
2022-09-15T14:41:34.571Z,24.14
2022-09-15T14:45:53.030Z,24.18
2022-09-15T14:47:06.985Z,24.37
2022-09-15T14:49:38.112Z,24.54
2022-09-15T14:52:17.239Z,24.77
2022-09-15T14:54:47.986Z,24.62
2022-09-15T14:57:20.602Z,24.59
2022-09-15T14:59:53.901Z,24.50
2022-09-15T15:02:28.439Z,24.73
2022-09-15T15:04:59.993Z,24.64
2022-09-15T15:07:33.276Z,24.30
2022-09-15T15:10:06.324Z,24.23
2022-09-15T15:12:38.626Z,24.05
2022-09-15T15:15:11.829Z,24.00
2022-09-15T15:17:43.892Z,23.95
2022-09-15T15:20:16.802Z,23.93
2022-09-15T15:22:47.738Z,24.14
2022-09-15T15:25:29.516Z,24.18
2022-09-15T15:28:00.574Z,23.99
2022-09-15T15:30:36.356Z,24.18
2022-09-15T15:33:07.915Z,24.29
2022-09-15T15:35:38.924Z,24.35
2022-09-15T15:38:14.882Z,24.44
2022-09-15T15:40:46.325Z,24.11
2022-09-15T15:43:22.481Z,23.78
2022-09-15T15:45:58.822Z,23.58
2022-09-15T15:48:34.023Z,23.66
2022-09-15T15:51:09.651Z,24.01
2022-09-15T15:53:40.361Z,23.95
2022-09-15T15:56:11.311Z,23.52
2022-09-15T15:58:42.142Z,23.36
2022-09-15T16:01:13.208Z,23.26
2022-09-15T16:03:43.603Z,23.26
2022-09-15T16:06:14.828Z,23.53
2022-09-15T16:08:46.096Z,23.46
2022-09-15T16:11:17.450Z,23.42
2022-09-15T16:13:48.483Z,23.30
2022-09-15T16:16:21.621Z,23.44
2022-09-15T16:18:50.284Z,23.40
2022-09-15T16:21:22.014Z,23.28
2022-09-15T16:23:52.738Z,23.27
2022-09-15T16:26:24.836Z,23.18
2022-09-15T16:28:55.242Z,23.28
2022-09-15T16:31:26.424Z,23.28
2022-09-15T16:33:56.721Z,23.29
2022-09-15T16:36:28.052Z,23.55
2022-09-15T16:38:58.277Z,23.77
2022-09-15T16:41:29.724Z,23.89
2022-09-15T16:44:00.044Z,23.48
2022-09-15T16:46:32.734Z,23.47
2022-09-15T16:49:03.052Z,23.45
2022-09-15T16:51:33.985Z,23.27
2022-09-15T16:54:04.519Z,23.01
2022-09-15T16:56:35.348Z,23.28
2022-09-15T16:59:05.880Z,23.34
2022-09-15T17:01:36.502Z,23.31
2022-09-15T17:04:12.814Z,23.36
2022-09-15T17:06:43.503Z,23.43
2022-09-15T17:09:14.889Z,23.43
2022-09-15T17:11:45.435Z,23.46
2022-09-15T17:14:18.028Z,23.57
2022-09-15T17:16:53.194Z,23.20
2022-09-15T17:19:23.969Z,22.70
2022-09-15T17:21:54.798Z,22.56
2022-09-15T17:24:26.006Z,22.20
2022-09-15T17:26:56.949Z,22.13
2022-09-15T17:29:27.611Z,21.98
2022-09-15T17:31:58.115Z,21.88
2022-09-15T17:34:28.537Z,21.66
2022-09-15T17:36:59.958Z,21.62
2022-09-15T17:39:30.225Z,21.62
2022-09-15T17:44:37.746Z,21.65
2022-09-15T17:47:08.698Z,21.70
2022-09-15T17:49:39.379Z,21.83
2022-09-15T17:52:10.366Z,21.87
2022-09-15T17:54:41.160Z,22.19
2022-09-15T17:57:11.783Z,22.10
2022-09-15T17:59:42.208Z,22.09
2022-09-15T18:02:18.711Z,21.73
2022-09-15T18:04:49.532Z,21.95
2022-09-15T18:07:23.835Z,21.98
2022-09-15T18:09:55.998Z,22.05
2022-09-15T18:12:26.835Z,21.84
2022-09-15T18:14:57.469Z,22.31
2022-09-15T18:17:28.405Z,22.17
2022-09-15T18:19:58.825Z,22.17
2022-09-15T18:22:29.460Z,21.79
2022-09-15T18:25:00.194Z,21.36
2022-09-15T18:27:30.925Z,21.54
2022-09-15T18:30:01.578Z,21.92
2022-09-15T18:32:33.824Z,21.70
2022-09-15T18:35:04.677Z,21.63
2022-09-15T18:37:35.596Z,21.49
2022-09-15T18:40:08.763Z,21.67
2022-09-15T18:42:38.396Z,21.90
2022-09-15T18:45:10.589Z,22.06
2022-09-15T18:47:42.942Z,22.04
2022-09-15T18:50:14.284Z,21.83
2022-09-15T18:52:44.915Z,21.79
2022-09-15T18:55:16.420Z,21.86
2022-09-15T18:57:47.912Z,21.48
2022-09-15T19:00:19.874Z,21.59
2022-09-15T19:02:50.763Z,21.27
2022-09-15T19:05:24.320Z,21.49
2022-09-15T19:07:55.597Z,21.64
2022-09-15T19:10:27.322Z,21.64
2022-09-15T19:12:57.947Z,21.38
2022-09-15T19:15:29.393Z,21.15
2022-09-15T19:17:59.948Z,21.63
2022-09-15T19:20:30.315Z,22.06
2022-09-15T19:23:01.086Z,21.96
2022-09-15T19:25:31.908Z,21.85
2022-09-15T19:28:05.423Z,21.91
2022-09-15T19:30:36.191Z,22.01
2022-09-15T19:33:07.190Z,21.83
2022-09-15T19:35:37.621Z,21.40
2022-09-15T19:38:08.055Z,21.06
2022-09-15T19:40:38.486Z,20.67
2022-09-15T19:43:10.836Z,21.05
2022-09-15T19:45:43.965Z,21.63
2022-09-15T19:48:14.560Z,21.48
2022-09-15T19:50:45.358Z,21.59
2022-09-15T19:53:15.924Z,21.31
2022-09-15T19:55:51.568Z,21.42
2022-09-15T19:58:21.996Z,21.37
2022-09-15T20:00:56.971Z,21.92
2022-09-15T20:03:29.498Z,21.79
2022-09-15T20:06:01.722Z,21.22
2022-09-15T20:08:36.440Z,21.60
2022-09-15T20:11:11.225Z,21.40
2022-09-15T20:13:43.911Z,21.13
2022-09-15T20:16:16.990Z,21.25
2022-09-15T20:18:50.091Z,21.39
2022-09-15T20:21:45.980Z,21.16
2022-09-15T20:24:18.134Z,21.32
2022-09-15T20:26:50.014Z,21.03
2022-09-15T20:29:21.517Z,21.25
2022-09-15T20:31:53.103Z,21.18
2022-09-15T20:34:26.558Z,21.11
2022-09-15T20:36:58.683Z,21.45
2022-09-15T20:39:30.156Z,22.05
2022-09-15T20:42:01.956Z,21.99
2022-09-15T20:44:33.594Z,22.02
2022-09-15T20:47:05.033Z,21.45
2022-09-15T20:49:36.460Z,21.74
2022-09-15T20:52:07.522Z,21.77
2022-09-15T20:54:38.402Z,21.63
2022-09-15T20:57:09.895Z,21.64
2022-09-15T20:59:41.510Z,21.58
2022-09-15T21:02:13.070Z,21.52
2022-09-15T21:04:44.236Z,21.36
2022-09-15T21:07:15.620Z,21.29
2022-09-15T21:09:46.724Z,21.38
2022-09-15T21:12:17.763Z,21.68
2022-09-15T21:14:48.472Z,21.55
2022-09-15T21:17:20.026Z,21.62
2022-09-15T21:19:50.642Z,21.68
2022-09-15T21:22:23.096Z,21.64
2022-09-15T21:24:54.396Z,21.62
2022-09-15T21:27:28.128Z,21.42
2022-09-15T21:29:59.386Z,21.58
2022-09-15T21:32:30.792Z,21.57
2022-09-15T21:35:01.561Z,21.89
2022-09-15T21:37:32.431Z,21.71
2022-09-15T21:40:03.908Z,21.79
2022-09-15T21:42:35.026Z,21.48
2022-09-15T21:45:07.111Z,21.34
2022-09-15T21:47:38.040Z,21.39
2022-09-15T21:50:09.663Z,21.07
2022-09-15T21:52:40.735Z,20.97
2022-09-15T21:55:12.082Z,21.07
2022-09-15T21:57:43.130Z,21.21
2022-09-15T22:00:15.196Z,21.23
2022-09-15T22:02:46.307Z,21.67
2022-09-15T22:05:17.187Z,20.97
2022-09-15T22:07:48.753Z,21.49
2022-09-15T22:10:19.678Z,21.38
2022-09-15T22:12:54.447Z,21.35
2022-09-15T22:15:26.167Z,21.52
2022-09-15T22:17:57.617Z,21.64
2022-09-15T22:20:28.955Z,21.58
2022-09-15T22:23:01.479Z,21.26
2022-09-15T22:25:32.181Z,21.36
2022-09-15T22:28:03.570Z,21.10
2022-09-15T22:30:34.461Z,21.46
2022-09-15T22:33:05.546Z,21.74
2022-09-15T22:35:36.302Z,21.30
2022-09-15T22:38:07.398Z,21.35
2022-09-15T22:40:38.343Z,21.12
2022-09-15T22:43:09.276Z,21.17
2022-09-15T22:45:40.384Z,21.19
2022-09-15T22:48:11.238Z,21.09
2022-09-15T22:50:44.818Z,21.07
2022-09-15T22:53:16.383Z,20.85
2022-09-15T22:55:47.260Z,21.20
2022-09-15T22:58:18.057Z,21.27
2022-09-15T23:00:48.980Z,21.36
2022-09-15T23:03:19.768Z,21.16
2022-09-15T23:05:57.623Z,21.07
2022-09-15T23:08:28.352Z,21.10
2022-09-15T23:11:03.536Z,21.15
2022-09-15T23:13:34.137Z,20.65
2022-09-15T23:16:06.134Z,21.17
2022-09-15T23:18:36.522Z,20.67
2022-09-15T23:21:08.320Z,20.92
2022-09-15T23:23:39.517Z,21.03
2022-09-15T23:26:11.646Z,20.97
2022-09-15T23:28:42.002Z,21.08
2022-09-15T23:31:13.446Z,20.75
2022-09-15T23:33:43.981Z,21.01
2022-09-15T23:36:16.063Z,21.09
2022-09-15T23:38:46.905Z,21.23
2022-09-15T23:41:18.233Z,20.96
2022-09-15T23:43:48.756Z,20.77
2022-09-15T23:46:20.215Z,20.82
2022-09-15T23:48:50.940Z,21.02
2022-09-15T23:51:22.496Z,20.92
2022-09-15T23:53:52.932Z,20.98
2022-09-15T23:56:23.909Z,21.00
2022-09-15T23:58:54.178Z,21.00
